Time;durP1;ratioP1;P1;durP2;ratioP2;P2;SDS_P1;SDS_P2;PMS_P1;PMS_P2;Temp;Humidity;BMP_temperature;BMP_pressure;BME280_temperature;BME280_humidity;BME280_pressure;Samples;Min_cycle;Max_cycle;Signal;HPM_P1;HPM_P2
2022/08/31 00:03:54;;;;;;;1.30;1.17;;;25.00;29.50;;;;;;5044768;28;20804;-72
2022/08/31 00:06:21;;;;;;;1.30;1.10;;;25.10;28.90;;;;;;5050754;28;20464;-73
2022/08/31 00:08:46;;;;;;;1.30;1.10;;;25.20;28.20;;;;;;5043310;28;20441;-73
2022/08/31 00:11:13;;;;;;;1.30;1.30;;;25.00;27.50;;;;;;5050579;28;20814;-73
2022/08/31 00:13:40;;;;;;;1.27;1.10;;;25.00;28.40;;;;;;5049956;28;20244;-73
2022/08/31 00:16:08;;;;;;;1.30;1.10;;;24.60;28.10;;;;;;5048536;28;20437;-73
2022/08/31 00:18:33;;;;;;;1.30;1.20;;;24.70;28.90;;;;;;5049700;28;20438;-73
2022/08/31 00:20:59;;;;;;;1.30;1.10;;;24.40;29.80;;;;;;5049537;28;20426;-73
2022/08/31 00:23:24;;;;;;;1.27;1.10;;;24.60;29.80;;;;;;5051219;28;21020;-73
2022/08/31 00:25:50;;;;;;;1.30;1.20;;;24.80;30.00;;;;;;5043273;28;20224;-73
2022/08/31 00:28:17;;;;;;;1.30;1.20;;;24.80;29.80;;;;;;5049989;28;20192;-73
2022/08/31 00:30:44;;;;;;;1.30;1.30;;;24.90;30.20;;;;;;5049736;28;20181;-73
2022/08/31 00:33:10;;;;;;;1.30;1.20;;;24.90;29.50;;;;;;5048761;28;20516;-73
2022/08/31 00:35:40;;;;;;;1.30;1.10;;;24.70;29.80;;;;;;5051140;28;20468;-73
2022/08/31 00:38:06;;;;;;;1.30;1.20;;;24.90;29.50;;;;;;5034886;28;20484;-73
2022/08/31 00:40:33;;;;;;;1.30;1.30;;;25.10;28.50;;;;;;5050348;28;20859;-73
2022/08/31 00:43:00;;;;;;;1.30;1.20;;;25.10;30.00;;;;;;5050956;28;20979;-73
2022/08/31 00:45:26;;;;;;;1.23;1.20;;;25.10;30.50;;;;;;5046428;28;20435;-73
2022/08/31 00:47:52;;;;;;;1.30;1.23;;;24.70;30.20;;;;;;5047350;28;20980;-73
2022/08/31 00:50:19;;;;;;;1.30;1.20;;;24.40;29.90;;;;;;5049438;28;20187;-72
2022/08/31 00:52:51;;;;;;;1.30;1.10;;;24.00;31.10;;;;;;5049908;28;20812;-73
2022/08/31 00:55:27;;;;;;;1.30;1.20;;;23.70;33.30;;;;;;5050788;28;20504;-73
2022/08/31 00:57:55;;;;;;;1.30;1.03;;;23.60;34.40;;;;;;5050709;28;20434;-73
2022/08/31 01:00:24;;;;;;;1.30;1.17;;;23.50;35.30;;;;;;5048903;28;20799;-74
2022/08/31 01:02:50;;;;;;;1.30;1.10;;;23.70;35.50;;;;;;5050216;28;20421;-74
2022/08/31 01:05:17;;;;;;;1.30;1.13;;;23.70;36.70;;;;;;5048671;28;20510;-73
2022/08/31 01:07:48;;;;;;;1.30;1.20;;;23.30;39.70;;;;;;5047062;28;20527;-74
2022/08/31 01:10:15;;;;;;;1.30;1.20;;;23.40;40.30;;;;;;5050667;28;20423;-74
2022/08/31 01:12:43;;;;;;;1.30;1.30;;;23.80;39.80;;;;;;5050350;28;20826;-74
2022/08/31 01:15:11;;;;;;;1.30;1.20;;;23.00;44.50;;;;;;5050489;28;20832;-74
2022/08/31 01:17:37;;;;;;;1.30;1.13;;;23.00;45.80;;;;;;5056833;28;20462;-73
2022/08/31 01:20:26;;;;;;;1.30;1.20;;;23.00;46.30;;;;;;5057375;28;20443;-74
2022/08/31 01:22:57;;;;;;;1.30;1.30;;;22.90;47.70;;;;;;5048806;28;20409;-74
2022/08/31 01:25:24;;;;;;;1.30;1.20;;;22.50;49.60;;;;;;5048580;28;21179;-74
2022/08/31 01:27:49;;;;;;;1.30;1.20;;;21.70;54.60;;;;;;5056708;28;20430;-74
2022/08/31 01:30:24;;;;;;;1.30;1.27;;;21.50;56.40;;;;;;5055552;28;20428;-73
2022/08/31 01:32:50;;;;;;;1.30;1.20;;;21.20;59.90;;;;;;5051596;28;20167;-74
2022/08/31 01:35:17;;;;;;;1.30;1.10;;;21.20;60.30;;;;;;5055822;28;20508;-74
2022/08/31 01:37:42;;;;;;;1.30;1.20;;;21.00;57.70;;;;;;5053676;28;20448;-74
2022/08/31 01:40:09;;;;;;;1.30;1.20;;;21.40;53.80;;;;;;5056732;28;20414;-74
2022/08/31 01:42:34;;;;;;;1.30;1.20;;;21.40;52.40;;;;;;5056813;28;20253;-73
2022/08/31 01:45:01;;;;;;;1.30;1.10;;;21.10;53.60;;;;;;5049093;28;20523;-74
2022/08/31 01:47:27;;;;;;;1.30;1.10;;;21.30;50.90;;;;;;5048594;28;20294;-74
2022/08/31 01:49:52;;;;;;;1.30;1.27;;;21.40;50.90;;;;;;5056255;28;20880;-74
2022/08/31 01:52:18;;;;;;;1.30;1.20;;;21.50;48.30;;;;;;5056953;28;20642;-73
2022/08/31 01:54:44;;;;;;;1.30;1.20;;;21.50;48.40;;;;;;5051511;28;20202;-73
2022/08/31 01:57:09;;;;;;;1.30;1.10;;;21.60;48.50;;;;;;5056506;28;20551;-73
2022/08/31 01:59:35;;;;;;;1.30;1.10;;;21.80;47.00;;;;;;5056075;28;20678;-73
2022/08/31 02:02:00;;;;;;;1.30;1.20;;;21.60;47.30;;;;;;5055582;28;20182;-73
2022/08/31 02:04:27;;;;;;;1.30;1.20;;;21.60;48.70;;;;;;5056396;28;20179;-73
2022/08/31 02:06:56;;;;;;;1.30;1.10;;;21.80;48.20;;;;;;5056895;28;20198;-74
2022/08/31 02:09:22;;;;;;;1.30;1.20;;;22.20;49.60;;;;;;5047896;28;20429;-74
2022/08/31 02:11:48;;;;;;;1.30;1.20;;;22.60;48.80;;;;;;5054384;28;20428;-74
2022/08/31 02:14:14;;;;;;;1.30;1.10;;;22.80;48.50;;;;;;5056523;28;20595;-74
2022/08/31 02:16:40;;;;;;;1.30;1.20;;;22.80;47.80;;;;;;5048551;28;21018;-74
2022/08/31 02:19:06;;;;;;;1.30;1.20;;;22.80;47.60;;;;;;5050101;28;20842;-74
2022/08/31 02:21:32;;;;;;;1.30;1.10;;;22.80;48.70;;;;;;5055018;28;20427;-74
2022/08/31 02:23:57;;;;;;;1.30;1.20;;;22.80;48.40;;;;;;5056697;28;20178;-74
2022/08/31 02:26:23;;;;;;;1.30;1.10;;;22.80;49.20;;;;;;5056193;28;20658;-74
2022/08/31 02:28:49;;;;;;;1.30;1.10;;;22.80;49.40;;;;;;5045579;28;20679;-74
2022/08/31 02:31:15;;;;;;;1.30;1.20;;;22.80;49.10;;;;;;5045095;28;20182;-74
2022/08/31 02:33:41;;;;;;;1.30;1.20;;;22.70;49.40;;;;;;5050354;28;20474;-73
2022/08/31 02:36:07;;;;;;;1.30;1.20;;;22.80;49.40;;;;;;5049569;28;20216;-74
2022/08/31 02:38:37;;;;;;;1.30;1.20;;;22.70;48.60;;;;;;5048686;28;21004;-73
2022/08/31 02:41:04;;;;;;;1.30;1.10;;;22.50;47.60;;;;;;5053054;28;20410;-74
2022/08/31 02:43:30;;;;;;;1.30;1.10;;;21.70;50.50;;;;;;5046941;28;20958;-73
2022/08/31 02:45:56;;;;;;;1.30;1.30;;;21.30;53.10;;;;;;5053171;28;20470;-74
2022/08/31 02:48:22;;;;;;;1.30;1.20;;;21.60;52.50;;;;;;5053912;28;20420;-74
2022/08/31 02:50:50;;;;;;;1.30;1.30;;;21.40;52.10;;;;;;5044910;28;20265;-74
2022/08/31 02:53:18;;;;;;;1.30;1.20;;;21.80;51.30;;;;;;5051356;28;20514;-74
2022/08/31 02:55:44;;;;;;;1.30;1.10;;;21.90;51.60;;;;;;5052927;28;20525;-74
2022/08/31 02:58:12;;;;;;;1.30;1.30;;;22.10;51.90;;;;;;5045292;28;20510;-74
2022/08/31 03:00:38;;;;;;;1.30;1.20;;;22.40;51.90;;;;;;5052599;28;20420;-74
2022/08/31 03:03:04;;;;;;;1.30;1.10;;;22.60;50.20;;;;;;5051925;28;20433;-74
2022/08/31 03:05:30;;;;;;;1.30;1.20;;;20.70;48.60;;;;;;5049477;28;20428;-74
2022/08/31 03:07:56;;;;;;;1.30;1.20;;;22.40;51.70;;;;;;5052611;28;20431;-74
2022/08/31 03:10:24;;;;;;;1.30;1.20;;;22.40;52.90;;;;;;5053241;28;20657;-74
2022/08/31 03:12:52;;;;;;;1.30;1.20;;;22.40;50.10;;;;;;5047230;28;20178;-74
2022/08/31 03:15:19;;;;;;;1.30;1.20;;;22.20;52.00;;;;;;5047900;28;20469;-74
2022/08/31 03:17:45;;;;;;;1.30;1.20;;;21.90;52.60;;;;;;5052870;28;20808;-74
2022/08/31 03:20:11;;;;;;;1.30;1.10;;;22.10;51.30;;;;;;5044816;28;20424;-73
2022/08/31 03:22:37;;;;;;;1.30;1.10;;;21.90;54.20;;;;;;5050903;28;20476;-73
2022/08/31 03:25:05;;;;;;;1.30;1.20;;;21.60;55.20;;;;;;5051037;28;20427;-73
2022/08/31 03:27:31;;;;;;;1.30;1.27;;;21.40;57.00;;;;;;5051763;28;20571;-73
2022/08/31 03:29:57;;;;;;;1.30;1.10;;;21.50;57.70;;;;;;5052663;28;20925;-73
2022/08/31 03:32:23;;;;;;;1.30;1.10;;;21.50;56.60;;;;;;5046166;28;20546;-73
2022/08/31 03:34:59;;;;;;;1.30;1.13;;;21.60;55.90;;;;;;5049966;28;20455;-73
2022/08/31 03:37:25;;;;;;;1.30;1.13;;;21.80;54.90;;;;;;5050412;28;20453;-73
2022/08/31 03:39:51;;;;;;;1.30;1.10;;;21.60;53.90;;;;;;5051076;28;20423;-73
2022/08/31 03:42:17;;;;;;;1.30;1.10;;;21.70;56.00;;;;;;5051556;28;20905;-74
2022/08/31 03:44:43;;;;;;;1.30;1.20;;;22.00;54.90;;;;;;5043950;28;20428;-73
2022/08/31 03:47:08;;;;;;;1.30;1.10;;;21.90;53.40;;;;;;5050958;28;20611;-74
2022/08/31 03:49:34;;;;;;;1.30;1.30;;;21.50;56.70;;;;;;5051723;28;20423;-74
2022/08/31 03:52:01;;;;;;;1.30;1.20;;;21.80;55.20;;;;;;5049344;28;20212;-74
2022/08/31 03:54:26;;;;;;;1.30;1.10;;;22.00;54.20;;;;;;5046426;28;20209;-74
2022/08/31 03:56:52;;;;;;;1.30;1.10;;;21.90;55.00;;;;;;5050341;28;20443;-74
2022/08/31 03:59:18;;;;;;;1.30;1.20;;;21.90;55.20;;;;;;5052165;28;20221;-73
2022/08/31 04:01:43;;;;;;;1.30;1.10;;;21.70;56.70;;;;;;5043489;28;20189;-73
2022/08/31 04:04:14;;;;;;;1.30;1.10;;;21.50;57.20;;;;;;5051576;28;20188;-73
2022/08/31 04:06:40;;;;;;;1.30;1.20;;;21.50;60.40;;;;;;5049379;28;20213;-74
2022/08/31 04:09:06;;;;;;;1.30;1.20;;;21.70;59.50;;;;;;5049975;28;21090;-73
2022/08/31 04:11:32;;;;;;;1.30;1.20;;;22.10;54.10;;;;;;5050872;28;20473;-73
2022/08/31 04:13:58;;;;;;;1.30;1.10;;;22.30;51.80;;;;;;5050872;28;20463;-74
2022/08/31 04:16:25;;;;;;;1.30;1.20;;;22.20;53.60;;;;;;5042931;28;20197;-74
2022/08/31 04:18:51;;;;;;;1.30;1.10;;;22.20;54.20;;;;;;5041846;28;20485;-73
2022/08/31 04:21:23;;;;;;;1.30;1.30;;;22.20;53.00;;;;;;5043927;28;20435;-73
2022/08/31 04:23:49;;;;;;;1.30;1.20;;;22.30;53.10;;;;;;5040771;28;20251;-73
2022/08/31 04:26:20;;;;;;;1.30;1.20;;;22.20;54.80;;;;;;5041865;28;20441;-73
2022/08/31 04:28:47;;;;;;;1.30;1.20;;;22.30;52.90;;;;;;5042787;28;20986;-73
2022/08/31 04:31:13;;;;;;;1.30;1.20;;;22.30;53.00;;;;;;5040247;28;20518;-74
2022/08/31 04:33:40;;;;;;;1.30;1.10;;;22.30;54.70;;;;;;5040638;28;20468;-74
2022/08/31 04:36:11;;;;;;;1.30;1.20;;;22.20;54.10;;;;;;5041056;28;20439;-73
2022/08/31 04:38:37;;;;;;;1.30;1.30;;;22.30;55.20;;;;;;5040694;28;20452;-73
2022/08/31 04:41:11;;;;;;;1.30;1.23;;;22.10;56.60;;;;;;5042547;28;20431;-74
2022/08/31 04:43:44;;;;;;;1.30;1.10;;;22.30;53.60;;;;;;5042923;28;20438;-74
2022/08/31 04:46:10;;;;;;;1.30;1.20;;;22.40;52.60;;;;;;5044950;28;20812;-73
2022/08/31 04:48:37;;;;;;;1.30;1.20;;;22.30;54.10;;;;;;5041138;28;20433;-73
2022/08/31 04:51:07;;;;;;;1.30;1.27;;;22.20;54.60;;;;;;5040025;28;20425;-73
2022/08/31 04:53:35;;;;;;;1.30;1.20;;;22.10;53.90;;;;;;5042681;28;20825;-73
2022/08/31 04:56:15;;;;;;;1.30;1.20;;;22.00;55.80;;;;;;5050170;28;20445;-73
2022/08/31 04:58:47;;;;;;;1.30;1.20;;;21.80;56.70;;;;;;5042942;28;20410;-73
2022/08/31 05:01:18;;;;;;;1.20;1.10;;;21.10;60.00;;;;;;5050010;28;20910;-74
2022/08/31 05:03:44;;;;;;;1.30;1.10;;;20.70;63.00;;;;;;5050153;28;21017;-73
2022/08/31 05:06:14;;;;;;;1.30;1.20;;;20.50;66.80;;;;;;5049463;28;20497;-73
2022/08/31 05:08:40;;;;;;;1.30;1.20;;;20.50;68.10;;;;;;5050635;28;20455;-73
2022/08/31 05:11:15;;;;;;;1.30;1.10;;;21.00;65.50;;;;;;5048418;28;20443;-74
2022/08/31 05:13:41;;;;;;;1.30;1.10;;;21.50;61.20;;;;;;5049086;28;20519;-73
2022/08/31 05:16:09;;;;;;;1.30;1.20;;;21.80;58.00;;;;;;5050817;28;20435;-74
2022/08/31 05:18:40;;;;;;;1.30;1.20;;;22.10;55.80;;;;;;5049587;28;20418;-73
2022/08/31 05:21:09;;;;;;;1.30;1.20;;;22.00;56.10;;;;;;5044457;28;20514;-73
2022/08/31 05:23:34;;;;;;;1.30;1.20;;;21.70;58.40;;;;;;5042582;28;20430;-74
2022/08/31 05:26:00;;;;;;;1.30;1.20;;;21.70;58.20;;;;;;5049514;28;20511;-74
2022/08/31 05:28:25;;;;;;;1.27;1.20;;;21.70;57.50;;;;;;5063259;28;20185;-74
2022/08/31 05:30:51;;;;;;;1.30;1.20;;;21.70;56.60;;;;;;5050154;28;20177;-74
2022/08/31 05:33:16;;;;;;;1.30;1.30;;;21.70;57.60;;;;;;5049563;28;20660;-73
2022/08/31 05:35:43;;;;;;;1.20;1.20;;;21.60;56.80;;;;;;5048876;28;20191;-73
2022/08/31 05:38:09;;;;;;;1.23;1.20;;;21.40;58.60;;;;;;5049019;28;20169;-73
2022/08/31 05:40:34;;;;;;;1.30;1.17;;;21.40;58.90;;;;;;5047181;28;20424;-73
2022/08/31 05:43:00;;;;;;;1.30;1.20;;;20.90;62.00;;;;;;5043877;28;20176;-74
2022/08/31 05:45:26;;;;;;;1.30;1.10;;;20.60;62.90;;;;;;5048373;28;20174;-73
2022/08/31 05:47:52;;;;;;;1.30;1.20;;;20.30;67.00;;;;;;5045623;28;20631;-73
2022/08/31 05:50:17;;;;;;;1.30;1.10;;;20.50;64.80;;;;;;5046425;28;20425;-73
2022/08/31 05:52:43;;;;;;;1.30;1.10;;;20.40;66.20;;;;;;5049861;28;20271;-73
2022/08/31 05:55:10;;;;;;;1.30;1.13;;;20.30;62.20;;;;;;5049918;28;20272;-73
2022/08/31 05:57:39;;;;;;;1.30;1.20;;;20.40;64.50;;;;;;5044073;28;20237;-73
2022/08/31 06:00:05;;;;;;;1.30;1.20;;;20.60;60.70;;;;;;5047531;28;20461;-73
2022/08/31 06:02:32;;;;;;;1.30;1.10;;;20.40;63.80;;;;;;5045369;28;20430;-73
2022/08/31 06:04:58;;;;;;;1.30;1.20;;;20.80;63.80;;;;;;5053772;28;20813;-73
2022/08/31 06:07:23;;;;;;;1.30;1.20;;;21.20;57.90;;;;;;5044860;28;20443;-73
2022/08/31 06:09:49;;;;;;;1.30;1.10;;;21.40;57.20;;;;;;5048767;28;20655;-73
2022/08/31 06:12:16;;;;;;;1.30;1.10;;;21.30;57.50;;;;;;5047603;28;20230;-74
2022/08/31 06:14:42;;;;;;;1.30;1.20;;;21.40;59.20;;;;;;5053103;28;21466;-73
2022/08/31 06:17:07;;;;;;;1.30;1.20;;;21.50;56.60;;;;;;5053941;28;20816;-73
2022/08/31 06:19:33;;;;;;;1.30;1.20;;;21.70;55.00;;;;;;5053524;28;20172;-74
2022/08/31 06:21:58;;;;;;;1.30;1.20;;;21.70;57.30;;;;;;5052726;28;20580;-73
2022/08/31 06:24:24;;;;;;;1.30;1.10;;;21.70;57.00;;;;;;5045053;28;20184;-75
2022/08/31 06:26:54;;;;;;;1.30;1.10;;;21.60;58.40;;;;;;5049241;28;20211;-74
2022/08/31 06:29:20;;;;;;;1.27;1.20;;;21.50;59.30;;;;;;5038894;28;20758;-74
2022/08/31 06:31:46;;;;;;;1.30;1.13;;;21.60;59.70;;;;;;5050123;28;20433;-75
2022/08/31 06:34:13;;;;;;;1.30;1.20;;;21.50;60.30;;;;;;5047808;28;20460;-74
2022/08/31 06:36:40;;;;;;;1.30;1.17;;;21.60;59.40;;;;;;5053126;28;20557;-75
2022/08/31 06:39:06;;;;;;;1.30;1.20;;;21.70;58.50;;;;;;5048849;28;20821;-71
2022/08/31 06:41:35;;;;;;;1.30;1.20;;;21.70;56.60;;;;;;5050245;28;20448;-72
2022/08/31 06:44:01;;;;;;;1.30;1.10;;;21.80;56.60;;;;;;5048442;28;20569;-71
2022/08/31 06:46:28;;;;;;;1.27;1.10;;;21.80;56.50;;;;;;5042115;28;20900;-72
2022/08/31 06:48:55;;;;;;;1.30;1.17;;;21.70;58.10;;;;;;5049760;28;20426;-72
2022/08/31 06:51:23;;;;;;;1.23;1.10;;;21.80;56.30;;;;;;5053695;28;20420;-72
2022/08/31 06:53:50;;;;;;;1.30;1.10;;;21.70;56.70;;;;;;5053245;28;20450;-72
2022/08/31 06:56:20;;;;;;;1.30;1.20;;;21.70;58.40;;;;;;5053003;28;20447;-72
2022/08/31 06:58:46;;;;;;;1.30;1.20;;;21.50;56.70;;;;;;5053721;28;20407;-72
2022/08/31 07:01:21;;;;;;;1.20;1.10;;;21.70;56.70;;;;;;5053129;28;20426;-73
2022/08/31 07:03:48;;;;;;;1.23;1.10;;;21.70;58.20;;;;;;5047537;28;20811;-71
2022/08/31 07:06:26;;;;;;;1.20;1.10;;;21.60;59.40;;;;;;5046749;28;20443;-71
2022/08/31 07:08:55;;;;;;;1.27;1.20;;;21.60;56.80;;;;;;5045757;28;20516;-71
2022/08/31 07:11:28;;;;;;;1.30;1.20;;;21.60;57.70;;;;;;5044475;28;20420;-71
2022/08/31 07:13:55;;;;;;;1.23;1.10;;;20.80;58.60;;;;;;5043070;28;20994;-71
2022/08/31 07:16:22;;;;;;;1.27;1.20;;;20.70;62.10;;;;;;5049338;28;20922;-71
2022/08/31 07:18:50;;;;;;;1.20;1.20;;;20.90;60.80;;;;;;5047362;28;20460;-71
2022/08/31 07:21:19;;;;;;;1.27;1.20;;;20.90;59.40;;;;;;5052478;28;20493;-70
2022/08/31 07:23:46;;;;;;;1.30;1.20;;;20.80;61.70;;;;;;5052414;28;20466;-71
2022/08/31 07:26:15;;;;;;;1.23;1.20;;;21.00;59.50;;;;;;5052723;28;20918;-71
2022/08/31 07:28:51;;;;;;;1.30;1.20;;;21.00;60.00;;;;;;5052785;28;20427;-71
2022/08/31 07:31:24;;;;;;;1.27;1.10;;;21.20;59.30;;;;;;5044147;28;20465;-71
2022/08/31 07:33:54;;;;;;;1.30;1.20;;;21.40;61.00;;;;;;5052120;28;20810;-71
2022/08/31 07:36:20;;;;;;;1.27;1.13;;;21.60;57.10;;;;;;5043730;28;20956;-70
2022/08/31 07:44:17;;;;;;;1.27;1.10;;;21.80;55.70;;;;;;5049962;28;20974;-70
2022/08/31 07:46:44;;;;;;;1.27;1.10;;;21.30;56.90;;;;;;5047778;28;20489;-70
2022/08/31 07:49:12;;;;;;;1.30;1.20;;;20.60;61.10;;;;;;5048866;28;20823;-70
2022/08/31 07:51:42;;;;;;;1.30;1.20;;;20.40;65.10;;;;;;5047392;28;20463;-70
2022/08/31 07:54:09;;;;;;;1.30;1.20;;;20.70;64.40;;;;;;5048387;28;20482;-71
2022/08/31 07:56:36;;;;;;;1.23;1.10;;;21.00;62.90;;;;;;5050746;28;20450;-70
2022/08/31 07:59:06;;;;;;;1.30;1.20;;;20.90;62.40;;;;;;5051924;28;20410;-70
2022/08/31 08:01:33;;;;;;;1.30;1.20;;;20.90;62.80;;;;;;5045702;28;20435;-70
2022/08/31 08:04:00;;;;;;;1.30;1.20;;;20.90;61.00;;;;;;5042957;28;20816;-70
2022/08/31 08:06:27;;;;;;;1.30;1.20;;;20.50;63.00;;;;;;5049831;28;20430;-75
2022/08/31 08:08:54;;;;;;;1.30;1.20;;;20.70;62.00;;;;;;5052578;28;20402;-71
2022/08/31 08:11:23;;;;;;;1.30;1.20;;;21.00;61.70;;;;;;5037886;28;20454;-71
2022/08/31 08:13:49;;;;;;;1.30;1.20;;;20.70;61.90;;;;;;5046673;28;20466;-71
2022/08/31 08:16:14;;;;;;;1.30;1.10;;;20.80;62.90;;;;;;5046838;28;20445;-74
2022/08/31 08:18:40;;;;;;;1.30;1.10;;;20.90;62.60;;;;;;5052118;28;20638;-71
2022/08/31 08:21:07;;;;;;;1.20;1.10;;;21.40;58.00;;;;;;5048819;28;20188;-72
2022/08/31 08:23:33;;;;;;;1.20;1.13;;;21.60;59.10;;;;;;5044160;28;20414;-71
2022/08/31 08:26:00;;;;;;;1.27;1.20;;;21.70;55.80;;;;;;5049339;28;20528;-71
2022/08/31 08:28:29;;;;;;;1.30;1.10;;;21.80;53.00;;;;;;5051994;28;20747;-72
2022/08/31 08:30:59;;;;;;;1.20;1.20;;;21.90;52.30;;;;;;5049963;28;20481;-71
2022/08/31 08:33:30;;;;;;;1.23;1.20;;;22.00;53.30;;;;;;5051387;28;20517;-71
2022/08/31 08:35:58;;;;;;;1.20;1.20;;;21.80;56.10;;;;;;5047887;28;20458;-71
2022/08/31 08:38:24;;;;;;;1.23;1.20;;;21.90;56.20;;;;;;5042291;28;20410;-71
2022/08/31 08:40:51;;;;;;;1.20;1.20;;;21.90;55.50;;;;;;5050573;28;20429;-71
2022/08/31 08:43:19;;;;;;;1.30;1.20;;;21.90;57.00;;;;;;5050790;28;20411;-72
2022/08/31 08:45:50;;;;;;;1.37;1.30;;;21.90;58.00;;;;;;5039526;28;20454;-72
2022/08/31 08:48:20;;;;;;;1.20;1.10;;;23.00;58.60;;;;;;5031518;28;20396;-71
2022/08/31 08:50:46;;;;;;;1.20;1.03;;;22.00;55.20;;;;;;5037973;28;20809;-71
2022/08/31 08:53:14;;;;;;;1.30;1.27;;;21.80;57.10;;;;;;5046630;28;20438;-71
2022/08/31 08:55:41;;;;;;;1.30;1.20;;;21.80;57.70;;;;;;5040415;28;20283;-72
2022/08/31 08:58:12;;;;;;;1.20;1.10;;;21.90;56.70;;;;;;5040983;28;20435;-72
2022/08/31 09:00:40;;;;;;;1.30;1.30;;;22.00;56.10;;;;;;5046696;28;20496;-71
2022/08/31 09:03:22;;;;;;;1.23;1.10;;;22.00;57.20;;;;;;5034277;28;20423;-71
2022/08/31 09:06:05;;;;;;;1.20;1.13;;;21.90;56.40;;;;;;5037026;28;20829;-71
2022/08/31 09:08:34;;;;;;;1.20;1.10;;;21.80;56.40;;;;;;5040051;28;20415;-71
2022/08/31 09:11:05;;;;;;;1.30;1.30;;;21.70;58.30;;;;;;5040036;28;20431;-71
2022/08/31 09:13:42;;;;;;;1.20;1.20;;;21.90;57.40;;;;;;5048545;28;20448;-72
2022/08/31 09:16:37;;;;;;;1.20;1.17;;;22.20;52.50;;;;;;5048647;28;20452;-71
2022/08/31 09:19:16;;;;;;;1.30;1.20;;;22.30;52.00;;;;;;5039374;28;20519;-71
2022/08/31 09:21:44;;;;;;;1.30;1.20;;;22.20;53.40;;;;;;5040193;28;20970;-72
2022/08/31 09:24:14;;;;;;;1.30;1.20;;;22.20;53.30;;;;;;5046137;28;20438;-71
2022/08/31 09:26:55;;;;;;;1.30;1.20;;;22.10;50.50;;;;;;5050458;28;20445;-71
2022/08/31 09:29:27;;;;;;;1.30;1.30;;;22.20;53.50;;;;;;5042894;28;20860;-73
2022/08/31 09:32:08;;;;;;;1.30;1.10;;;22.40;55.80;;;;;;5047387;28;20950;-72
2022/08/31 09:34:38;;;;;;;1.27;1.20;;;22.60;54.10;;;;;;5041483;28;20491;-73
2022/08/31 09:37:15;;;;;;;1.20;1.10;;;22.80;53.80;;;;;;5045634;28;20612;-73
2022/08/31 09:39:46;;;;;;;1.30;1.20;;;23.00;52.50;;;;;;5050962;28;20449;-73
2022/08/31 09:42:32;;;;;;;1.20;1.20;;;23.00;52.90;;;;;;5045532;28;20433;-73
2022/08/31 09:45:28;;;;;;;1.30;1.20;;;22.70;50.90;;;;;;5044665;28;20439;-73
2022/08/31 09:47:59;;;;;;;1.20;1.20;;;22.80;55.40;;;;;;5046421;28;20470;-72
2022/08/31 09:50:31;;;;;;;1.30;1.20;;;23.00;56.00;;;;;;5034856;28;20407;-76
2022/08/31 09:56:15;;;;;;;1.30;1.30;;;23.00;51.30;;;;;;5051108;28;20442;-73
2022/08/31 09:59:01;;;;;;;1.20;1.20;;;23.00;54.40;;;;;;5046646;28;20426;-73
2022/08/31 10:01:41;;;;;;;1.20;1.10;;;23.20;53.50;;;;;;5043487;28;20411;-73
2022/08/31 10:04:24;;;;;;;1.20;1.17;;;23.30;52.60;;;;;;5045048;28;20796;-73
2022/08/31 10:07:23;;;;;;;1.20;1.10;;;23.40;53.20;;;;;;5048194;28;20459;-73
2022/08/31 10:10:07;;;;;;;1.27;1.20;;;23.40;53.00;;;;;;5051322;28;20436;-73
2022/08/31 10:12:59;;;;;;;1.30;1.20;;;23.40;47.10;;;;;;5046202;28;20412;-73
2022/08/31 10:15:27;;;;;;;1.20;1.10;;;23.50;48.30;;;;;;5052976;28;20464;-73
2022/08/31 10:18:10;;;;;;;1.20;1.20;;;22.90;48.00;;;;;;5054334;28;20407;-73
2022/08/31 10:20:41;;;;;;;1.23;1.20;;;23.20;47.70;;;;;;5054473;28;20882;-73
2022/08/31 10:23:19;;;;;;;1.20;1.20;;;23.50;46.50;;;;;;5050162;28;20418;-73
2022/08/31 10:25:53;;;;;;;1.20;1.10;;;23.00;47.70;;;;;;5033784;28;20426;-73
2022/08/31 10:28:30;;;;;;;1.20;1.13;;;23.10;49.80;;;;;;5034338;28;20419;-73
2022/08/31 10:31:15;;;;;;;1.30;1.20;;;23.30;52.80;;;;;;5033947;28;20400;-73
2022/08/31 10:37:08;;;;;;;1.20;1.20;;;23.10;54.80;;;;;;5034236;28;20552;-73
2022/08/31 10:39:57;;;;;;;1.30;1.20;;;22.80;51.10;;;;;;5053886;28;20394;-73
2022/08/31 10:42:37;;;;;;;1.20;1.10;;;22.10;58.40;;;;;;5053406;28;20441;-73
2022/08/31 10:45:23;;;;;;;1.20;1.20;;;21.70;54.70;;;;;;5053094;28;20898;-72
2022/08/31 10:47:53;;;;;;;1.30;1.30;;;21.60;54.90;;;;;;5048934;28;20813;-73
2022/08/31 10:50:48;;;;;;;1.20;1.20;;;21.40;56.90;;;;;;5053808;28;20494;-73
2022/08/31 10:53:36;;;;;;;1.20;1.10;;;21.70;54.30;;;;;;5044221;28;20413;-73
2022/08/31 10:56:15;;;;;;;1.30;1.20;;;21.60;58.70;;;;;;5053171;28;21079;-73
2022/08/31 10:59:17;;;;;;;1.27;1.20;;;21.40;58.30;;;;;;5053702;28;20909;-73
2022/08/31 11:01:56;;;;;;;1.30;1.30;;;21.80;57.00;;;;;;5049441;28;20413;-73
2022/08/31 11:04:38;;;;;;;1.20;1.17;;;22.20;53.40;;;;;;5053492;28;21007;-73
2022/08/31 11:07:13;;;;;;;1.20;1.20;;;21.80;55.40;;;;;;5039718;28;20431;-73
2022/08/31 11:09:45;;;;;;;1.20;1.10;;;22.70;58.00;;;;;;5053231;28;20397;-73
2022/08/31 11:12:20;;;;;;;1.20;1.20;;;22.90;54.00;;;;;;5051717;28;20424;-73
2022/08/31 11:15:13;;;;;;;1.20;1.20;;;23.50;52.20;;;;;;5051629;28;20469;-73
2022/08/31 11:18:11;;;;;;;1.20;1.10;;;23.20;48.00;;;;;;5052880;28;20510;-73
2022/08/31 11:20:59;;;;;;;1.27;1.20;;;23.00;49.20;;;;;;5053554;28;20405;-73
2022/08/31 11:23:49;;;;;;;1.20;1.20;;;23.00;49.90;;;;;;5052991;28;20449;-73
2022/08/31 11:26:32;;;;;;;1.20;1.10;;;23.60;50.50;;;;;;5052673;28;20437;-73
2022/08/31 11:29:13;;;;;;;1.30;1.30;;;23.90;51.70;;;;;;5052974;28;21111;-73
2022/08/31 11:31:39;;;;;;;1.20;1.10;;;24.00;49.60;;;;;;5052454;28;20412;-73
2022/08/31 11:34:15;;;;;;;1.20;1.20;;;24.00;47.50;;;;;;5052912;28;20479;-73
2022/08/31 11:36:51;;;;;;;1.20;1.20;;;23.90;46.90;;;;;;5041192;28;20801;-73
2022/08/31 11:39:34;;;;;;;1.23;1.20;;;23.40;47.10;;;;;;5033041;28;20967;-73
2022/08/31 11:42:11;;;;;;;1.20;1.10;;;22.90;49.70;;;;;;5032728;28;20417;-73
2022/08/31 11:44:38;;;;;;;1.20;1.10;;;22.90;49.80;;;;;;5032667;28;20387;-73
2022/08/31 11:47:06;;;;;;;1.20;1.10;;;23.50;49.70;;;;;;5043644;28;20472;-73
2022/08/31 11:49:42;;;;;;;1.20;1.10;;;23.80;48.30;;;;;;5052719;28;20468;-73
2022/08/31 11:52:20;;;;;;;1.20;1.13;;;24.00;45.90;;;;;;5052071;28;20415;-73
2022/08/31 11:54:47;;;;;;;1.20;1.20;;;24.10;47.00;;;;;;5052209;28;20546;-73
2022/08/31 11:57:19;;;;;;;1.30;1.20;;;24.10;48.30;;;;;;5052133;28;20439;-73
2022/08/31 11:59:47;;;;;;;1.20;1.10;;;23.70;45.70;;;;;;5051630;28;20932;-73
2022/08/31 12:02:42;;;;;;;1.30;1.20;;;24.00;48.10;;;;;;5051866;28;20413;-73
2022/08/31 12:05:09;;;;;;;1.30;1.20;;;24.30;48.80;;;;;;5049398;28;20784;-73
2022/08/31 12:07:34;;;;;;;1.23;1.10;;;23.60;46.60;;;;;;5049471;28;20445;-73
2022/08/31 12:10:19;;;;;;;1.20;1.10;;;23.00;49.30;;;;;;5032746;28;20438;-73
2022/08/31 12:13:18;;;;;;;1.20;1.10;;;23.70;52.90;;;;;;5032258;28;20584;-73
2022/08/31 12:16:17;;;;;;;1.20;1.10;;;24.20;46.30;;;;;;5032035;28;20463;-73
2022/08/31 12:25:10;;;;;;;1.20;1.20;;;25.10;46.30;;;;;;5052186;28;20432;-73
2022/08/31 12:28:06;;;;;;;1.30;1.20;;;25.10;43.90;;;;;;5051683;28;20880;-73
2022/08/31 12:30:32;;;;;;;1.30;1.20;;;25.70;43.30;;;;;;5036201;28;20504;-73
2022/08/31 12:33:13;;;;;;;1.30;1.20;;;26.00;40.10;;;;;;5031523;28;20411;-73
2022/08/31 12:35:39;;;;;;;1.30;1.30;;;25.80;39.70;;;;;;5031540;28;20826;-73
2022/08/31 12:38:25;;;;;;;1.20;1.10;;;24.70;41.00;;;;;;5032567;28;20457;-73
2022/08/31 12:40:56;;;;;;;1.20;1.10;;;25.60;40.80;;;;;;5031500;28;20536;-73
2022/08/31 12:43:27;;;;;;;1.20;1.10;;;26.30;38.40;;;;;;5031788;28;20457;-73
2022/08/31 12:46:18;;;;;;;1.20;1.20;;;26.00;36.10;;;;;;5039435;28;20450;-73
2022/08/31 12:48:56;;;;;;;1.20;1.10;;;25.10;40.50;;;;;;5031741;28;20430;-73
2022/08/31 12:51:45;;;;;;;1.23;1.20;;;24.70;40.60;;;;;;5031608;28;20944;-73
2022/08/31 12:54:28;;;;;;;1.20;1.10;;;25.20;44.50;;;;;;5031436;28;20528;-73
2022/08/31 12:57:12;;;;;;;1.20;1.10;;;25.70;41.50;;;;;;5036715;28;20928;-73
2022/08/31 13:00:09;;;;;;;1.20;1.13;;;25.00;40.20;;;;;;5051489;28;20765;-73
2022/08/31 13:02:41;;;;;;;1.23;1.17;;;24.10;44.80;;;;;;5051163;28;20437;-73
2022/08/31 13:05:18;;;;;;;1.20;1.10;;;24.50;42.90;;;;;;5049588;28;20415;-73
2022/08/31 13:07:43;;;;;;;1.20;1.10;;;24.90;43.00;;;;;;5051266;28;20437;-73
2022/08/31 13:10:21;;;;;;;1.20;1.17;;;25.50;42.60;;;;;;5051386;28;20406;-73
2022/08/31 13:12:59;;;;;;;1.20;1.10;;;25.90;39.40;;;;;;5050574;28;20250;-73
2022/08/31 13:15:31;;;;;;;1.30;1.20;;;26.20;37.90;;;;;;5050454;28;20449;-73
2022/08/31 13:18:00;;;;;;;1.30;1.20;;;25.90;38.50;;;;;;5050312;28;20838;-73
2022/08/31 13:20:34;;;;;;;1.20;1.10;;;25.00;38.70;;;;;;5051316;28;20800;-73
2022/08/31 13:23:05;;;;;;;1.20;1.07;;;25.60;38.00;;;;;;5050788;28;20395;-73
2022/08/31 13:25:37;;;;;;;1.30;1.20;;;25.20;39.70;;;;;;5051228;28;20406;-73
2022/08/31 13:28:06;;;;;;;1.20;1.10;;;25.40;40.30;;;;;;5049801;28;20513;-73